sensor_id;sensor_type;location;lat;lon;timestamp;pressure;altitude;pressure_sealevel;temperature;humidity
13705;BME280;6924;52.122;9.952;2022-10-15T00:01:29;99740.72;;;14.70;100.00
13705;BME280;6924;52.122;9.952;2022-10-15T00:03:55;99745.56;;;14.70;100.00
13705;BME280;6924;52.122;9.952;2022-10-15T00:06:22;99742.38;;;14.71;100.00
13705;BME280;6924;52.122;9.952;2022-10-15T00:08:48;99732.56;;;14.69;100.00
13705;BME280;6924;52.122;9.952;2022-10-15T00:11:16;99722.00;;;14.69;100.00
13705;BME280;6924;52.122;9.952;2022-10-15T00:13:44;99714.16;;;14.66;100.00
13705;BME280;6924;52.122;9.952;2022-10-15T00:16:12;99726.63;;;14.61;100.00
13705;BME280;6924;52.122;9.952;2022-10-15T00:18:41;99727.25;;;14.55;100.00
13705;BME280;6924;52.122;9.952;2022-10-15T00:21:10;99720.25;;;14.52;100.00
13705;BME280;6924;52.122;9.952;2022-10-15T00:23:37;99715.75;;;14.51;100.00
13705;BME280;6924;52.122;9.952;2022-10-15T00:26:06;99715.63;;;14.47;100.00
13705;BME280;6924;52.122;9.952;2022-10-15T00:28:33;99714.47;;;14.49;100.00
13705;BME280;6924;52.122;9.952;2022-10-15T00:31:01;99718.03;;;14.45;100.00
13705;BME280;6924;52.122;9.952;2022-10-15T00:33:29;99717.66;;;14.47;100.00
13705;BME280;6924;52.122;9.952;2022-10-15T00:36:03;99725.84;;;14.49;100.00
13705;BME280;6924;52.122;9.952;2022-10-15T00:38:30;99723.81;;;14.49;100.00
13705;BME280;6924;52.122;9.952;2022-10-15T00:40:57;99727.97;;;14.52;100.00
13705;BME280;6924;52.122;9.952;2022-10-15T00:43:37;99727.59;;;14.53;100.00
13705;BME280;6924;52.122;9.952;2022-10-15T00:46:06;99731.28;;;14.54;100.00
13705;BME280;6924;52.122;9.952;2022-10-15T00:48:37;99725.25;;;14.55;100.00
13705;BME280;6924;52.122;9.952;2022-10-15T00:51:05;99730.94;;;14.55;100.00
13705;BME280;6924;52.122;9.952;2022-10-15T00:53:32;99731.41;;;14.57;100.00
13705;BME280;6924;52.122;9.952;2022-10-15T00:56:00;99725.25;;;14.55;100.00
13705;BME280;6924;52.122;9.952;2022-10-15T00:58:28;99711.84;;;14.56;100.00
13705;BME280;6924;52.122;9.952;2022-10-15T01:00:57;99716.72;;;14.55;100.00
13705;BME280;6924;52.122;9.952;2022-10-15T01:03:24;99714.69;;;14.56;100.00
13705;BME280;6924;52.122;9.952;2022-10-15T01:05:51;99714.69;;;14.56;100.00
13705;BME280;6924;52.122;9.952;2022-10-15T01:08:20;99711.03;;;14.55;100.00
13705;BME280;6924;52.122;9.952;2022-10-15T01:10:50;99711.03;;;14.55;100.00
13705;BME280;6924;52.122;9.952;2022-10-15T01:13:27;99707.34;;;14.55;100.00
13705;BME280;6924;52.122;9.952;2022-10-15T01:15:58;99703.31;;;14.56;100.00
13705;BME280;6924;52.122;9.952;2022-10-15T01:18:30;99697.13;;;14.54;100.00
13705;BME280;6924;52.122;9.952;2022-10-15T01:21:07;99695.47;;;14.53;100.00
13705;BME280;6924;52.122;9.952;2022-10-15T01:24:22;99686.44;;;14.51;100.00
13705;BME280;6924;52.122;9.952;2022-10-15T01:27:18;99691.72;;;14.49;100.00
13705;BME280;6924;52.122;9.952;2022-10-15T01:32:35;99689.56;;;14.45;100.00
13705;BME280;6924;52.122;9.952;2022-10-15T01:35:12;99678.19;;;14.45;100.00
13705;BME280;6924;52.122;9.952;2022-10-15T01:37:50;99676.91;;;14.43;100.00
13705;BME280;6924;52.122;9.952;2022-10-15T01:40:20;99679.75;;;14.43;100.00
13705;BME280;6924;52.122;9.952;2022-10-15T01:42:53;99675.69;;;14.44;100.00
13705;BME280;6924;52.122;9.952;2022-10-15T01:45:27;99672.41;;;14.42;100.00
13705;BME280;6924;52.122;9.952;2022-10-15T01:47:58;99671.22;;;14.43;100.00
13705;BME280;6924;52.122;9.952;2022-10-15T01:50:30;99667.91;;;14.41;100.00
13705;BME280;6924;52.122;9.952;2022-10-15T01:52:59;99661.03;;;14.42;100.00
13705;BME280;6924;52.122;9.952;2022-10-15T01:55:26;99668.72;;;14.41;100.00
13705;BME280;6924;52.122;9.952;2022-10-15T01:57:55;99676.06;;;14.42;100.00
13705;BME280;6924;52.122;9.952;2022-10-15T02:00:23;99680.94;;;14.42;100.00
13705;BME280;6924;52.122;9.952;2022-10-15T02:02:50;99665.88;;;14.41;100.00
13705;BME280;6924;52.122;9.952;2022-10-15T02:05:21;99671.56;;;14.41;100.00
13705;BME280;6924;52.122;9.952;2022-10-15T02:07:55;99677.63;;;14.40;100.00
13705;BME280;6924;52.122;9.952;2022-10-15T02:10:27;99678.00;;;14.38;100.00
13705;BME280;6924;52.122;9.952;2022-10-15T02:13:03;99673.94;;;14.39;100.00
13705;BME280;6924;52.122;9.952;2022-10-15T02:15:35;99675.97;;;14.39;100.00
13705;BME280;6924;52.122;9.952;2022-10-15T02:18:09;99673.47;;;14.37;100.00
13705;BME280;6924;52.122;9.952;2022-10-15T02:20:44;99676.31;;;14.37;100.00
13705;BME280;6924;52.122;9.952;2022-10-15T02:23:17;99670.19;;;14.35;100.00
13705;BME280;6924;52.122;9.952;2022-10-15T02:25:46;99666.50;;;14.35;100.00
13705;BME280;6924;52.122;9.952;2022-10-15T02:28:15;99660.72;;;14.31;100.00
13705;BME280;6924;52.122;9.952;2022-10-15T02:30:45;99651.34;;;14.31;100.00
13705;BME280;6924;52.122;9.952;2022-10-15T02:33:13;99662.72;;;14.31;100.00
13705;BME280;6924;52.122;9.952;2022-10-15T02:35:43;99667.59;;;14.30;100.00
13705;BME280;6924;52.122;9.952;2022-10-15T02:38:14;99661.44;;;14.28;100.00
13705;BME280;6924;52.122;9.952;2022-10-15T02:40:42;99658.13;;;14.26;100.00
13705;BME280;6924;52.122;9.952;2022-10-15T02:43:12;99659.31;;;14.25;100.00
13705;BME280;6924;52.122;9.952;2022-10-15T02:45:39;99660.97;;;14.26;100.00
13705;BME280;6924;52.122;9.952;2022-10-15T02:48:06;99653.97;;;14.23;100.00
13705;BME280;6924;52.122;9.952;2022-10-15T02:50:33;99649.13;;;14.24;100.00
13705;BME280;6924;52.122;9.952;2022-10-15T02:53:00;99648.66;;;14.22;100.00
13705;BME280;6924;52.122;9.952;2022-10-15T02:55:27;99644.97;;;14.21;100.00
13705;BME280;6924;52.122;9.952;2022-10-15T02:57:53;99646.19;;;14.20;100.00
13705;BME280;6924;52.122;9.952;2022-10-15T03:00:20;99647.75;;;14.18;100.00
13705;BME280;6924;52.122;9.952;2022-10-15T03:02:47;99648.91;;;14.17;100.00
13705;BME280;6924;52.122;9.952;2022-10-15T03:05:13;99648.44;;;14.15;100.00
13705;BME280;6924;52.122;9.952;2022-10-15T03:07:40;99654.97;;;14.15;100.00
13705;BME280;6924;52.122;9.952;2022-10-15T03:10:08;99651.28;;;14.15;100.00
13705;BME280;6924;52.122;9.952;2022-10-15T03:12:34;99654.53;;;14.13;100.00
13705;BME280;6924;52.122;9.952;2022-10-15T03:15:01;99654.41;;;14.10;100.00
13705;BME280;6924;52.122;9.952;2022-10-15T03:17:27;99651.22;;;14.11;100.00
13705;BME280;6924;52.122;9.952;2022-10-15T03:19:54;99650.75;;;14.09;100.00
13705;BME280;6924;52.122;9.952;2022-10-15T03:22:20;99654.75;;;14.08;100.00
13705;BME280;6924;52.122;9.952;2022-10-15T03:24:47;99657.94;;;14.06;100.00
13705;BME280;6924;52.122;9.952;2022-10-15T03:27:15;99648.59;;;14.06;100.00
13705;BME280;6924;52.122;9.952;2022-10-15T03:29:41;99641.28;;;14.05;100.00
13705;BME280;6924;52.122;9.952;2022-10-15T03:32:08;99645.28;;;14.04;100.00
13705;BME280;6924;52.122;9.952;2022-10-15T03:34:34;99652.19;;;14.03;100.00
13705;BME280;6924;52.122;9.952;2022-10-15T03:37:01;99657.03;;;14.02;100.00
13705;BME280;6924;52.122;9.952;2022-10-15T03:39:27;99649.69;;;14.01;100.00
13705;BME280;6924;52.122;9.952;2022-10-15T03:41:54;99649.22;;;13.99;100.00
13705;BME280;6924;52.122;9.952;2022-10-15T03:44:22;99653.25;;;13.98;100.00
13705;BME280;6924;52.122;9.952;2022-10-15T03:46:48;99649.94;;;13.96;100.00
13705;BME280;6924;52.122;9.952;2022-10-15T03:49:15;99648.28;;;13.95;100.00
13705;BME280;6924;52.122;9.952;2022-10-15T03:51:41;99646.16;;;13.92;100.00
13705;BME280;6924;52.122;9.952;2022-10-15T03:54:08;99642.38;;;13.88;100.00
13705;BME280;6924;52.122;9.952;2022-10-15T03:56:35;99641.56;;;13.88;100.00
13705;BME280;6924;52.122;9.952;2022-10-15T03:59:01;99637.91;;;13.87;100.00
13705;BME280;6924;52.122;9.952;2022-10-15T04:01:29;99640.75;;;13.87;100.00
13705;BME280;6924;52.122;9.952;2022-10-15T04:03:56;99638.72;;;13.88;100.00
13705;BME280;6924;52.122;9.952;2022-10-15T04:06:22;99641.91;;;13.86;100.00
13705;BME280;6924;52.122;9.952;2022-10-15T04:08:49;99643.94;;;13.85;100.00
13705;BME280;6924;52.122;9.952;2022-10-15T04:11:15;99643.13;;;13.85;100.00
13705;BME280;6924;52.122;9.952;2022-10-15T04:13:42;99655.19;;;13.82;100.00
13705;BME280;6924;52.122;9.952;2022-10-15T04:16:08;99653.53;;;13.81;100.00
13705;BME280;6924;52.122;9.952;2022-10-15T04:18:36;99652.72;;;13.80;100.00
13705;BME280;6924;52.122;9.952;2022-10-15T04:21:03;99648.56;;;13.78;100.00
13705;BME280;6924;52.122;9.952;2022-10-15T04:23:29;99653.81;;;13.76;100.00
13705;BME280;6924;52.122;9.952;2022-10-15T04:25:57;99653.31;;;13.74;100.00
13705;BME280;6924;52.122;9.952;2022-10-15T04:28:25;99650.84;;;13.72;100.00
13705;BME280;6924;52.122;9.952;2022-10-15T04:30:55;99648.34;;;13.71;100.00
13705;BME280;6924;52.122;9.952;2022-10-15T04:33:22;99652.72;;;13.68;100.00
13705;BME280;6924;52.122;9.952;2022-10-15T04:35:58;99653.09;;;13.67;100.00
13705;BME280;6924;52.122;9.952;2022-10-15T04:38:25;99659.97;;;13.66;100.00
13705;BME280;6924;52.122;9.952;2022-10-15T04:40:57;99658.75;;;13.67;100.00
13705;BME280;6924;52.122;9.952;2022-10-15T04:43:24;99663.75;;;13.70;100.00
13705;BME280;6924;52.122;9.952;2022-10-15T04:45:54;99664.56;;;13.70;100.00
13705;BME280;6924;52.122;9.952;2022-10-15T04:48:21;99665.88;;;13.73;100.00
13705;BME280;6924;52.122;9.952;2022-10-15T04:50:48;99665.88;;;13.73;100.00
13705;BME280;6924;52.122;9.952;2022-10-15T04:53:16;99673.22;;;13.74;100.00
13705;BME280;6924;52.122;9.952;2022-10-15T04:55:43;99673.22;;;13.74;100.00
13705;BME280;6924;52.122;9.952;2022-10-15T04:58:09;99676.53;;;13.76;100.00
13705;BME280;6924;52.122;9.952;2022-10-15T05:00:36;99674.50;;;13.76;100.00
13705;BME280;6924;52.122;9.952;2022-10-15T05:03:03;99666.34;;;13.75;100.00
13705;BME280;6924;52.122;9.952;2022-10-15T05:05:30;99671.66;;;13.76;100.00
13705;BME280;6924;52.122;9.952;2022-10-15T05:07:58;99679.81;;;13.78;100.00
13705;BME280;6924;52.122;9.952;2022-10-15T05:10:26;99672.50;;;13.77;100.00
13705;BME280;6924;52.122;9.952;2022-10-15T05:12:53;99658.28;;;13.77;100.00
13705;BME280;6924;52.122;9.952;2022-10-15T05:15:20;99665.59;;;13.78;100.00
13705;BME280;6924;52.122;9.952;2022-10-15T05:17:46;99659.09;;;13.77;100.00
13705;BME280;6924;52.122;9.952;2022-10-15T05:20:13;99662.75;;;13.78;100.00
13705;BME280;6924;52.122;9.952;2022-10-15T05:22:41;99666.00;;;13.76;100.00
13705;BME280;6924;52.122;9.952;2022-10-15T05:25:08;99664.78;;;13.77;100.00
13705;BME280;6924;52.122;9.952;2022-10-15T05:27:36;99663.97;;;13.77;100.00
13705;BME280;6924;52.122;9.952;2022-10-15T05:30:03;99666.34;;;13.75;100.00
13705;BME280;6924;52.122;9.952;2022-10-15T05:32:30;99668.34;;;13.74;100.00
13705;BME280;6924;52.122;9.952;2022-10-15T05:34:56;99672.03;;;13.75;100.00
13705;BME280;6924;52.122;9.952;2022-10-15T05:37:23;99668.72;;;13.73;100.00
13705;BME280;6924;52.122;9.952;2022-10-15T05:39:49;99664.91;;;13.69;100.00
13705;BME280;6924;52.122;9.952;2022-10-15T05:42:16;99670.97;;;13.67;100.00
13705;BME280;6924;52.122;9.952;2022-10-15T05:44:44;99672.50;;;13.64;100.00
13705;BME280;6924;52.122;9.952;2022-10-15T05:47:10;99673.34;;;13.65;100.00
13705;BME280;6924;52.122;9.952;2022-10-15T05:49:37;99679.84;;;13.66;100.00
13705;BME280;6924;52.122;9.952;2022-10-15T05:52:03;99683.88;;;13.64;100.00
13705;BME280;6924;52.122;9.952;2022-10-15T05:54:30;99682.69;;;13.66;100.00
13705;BME280;6924;52.122;9.952;2022-10-15T05:56:56;99688.72;;;13.64;100.00
13705;BME280;6924;52.122;9.952;2022-10-15T05:59:23;99685.41;;;13.62;100.00
13705;BME280;6924;52.122;9.952;2022-10-15T06:01:51;99684.47;;;13.58;100.00
13705;BME280;6924;52.122;9.952;2022-10-15T06:04:17;99683.16;;;13.55;100.00
13705;BME280;6924;52.122;9.952;2022-10-15T06:06:44;99686.00;;;13.55;100.00
13705;BME280;6924;52.122;9.952;2022-10-15T06:09:10;99688.03;;;13.55;100.00
13705;BME280;6924;52.122;9.952;2022-10-15T06:11:37;99687.22;;;13.54;100.00
13705;BME280;6924;52.122;9.952;2022-10-15T06:14:03;99697.38;;;13.55;100.00
13705;BME280;6924;52.122;9.952;2022-10-15T06:16:30;99695.34;;;13.56;100.00
13705;BME280;6924;52.122;9.952;2022-10-15T06:18:58;99698.19;;;13.56;100.00
13705;BME280;6924;52.122;9.952;2022-10-15T06:21:25;99693.38;;;13.56;100.00
13705;BME280;6924;52.122;9.952;2022-10-15T06:23:52;99697.84;;;13.57;100.00
13705;BME280;6924;52.122;9.952;2022-10-15T06:26:19;99703.53;;;13.57;100.00
13705;BME280;6924;52.122;9.952;2022-10-15T06:28:45;99706.38;;;13.57;100.00
13705;BME280;6924;52.122;9.952;2022-10-15T06:31:12;99712.53;;;13.59;100.00
13705;BME280;6924;52.122;9.952;2022-10-15T06:33:38;99712.53;;;13.59;100.00
13705;BME280;6924;52.122;9.952;2022-10-15T06:36:08;99708.53;;;13.60;100.00
13705;BME280;6924;52.122;9.952;2022-10-15T06:38:35;99713.81;;;13.62;100.00
13705;BME280;6924;52.122;9.952;2022-10-15T06:41:03;99717.16;;;13.64;100.00
13705;BME280;6924;52.122;9.952;2022-10-15T06:43:30;99712.28;;;13.64;100.00
13705;BME280;6924;52.122;9.952;2022-10-15T06:45:57;99720.47;;;13.66;100.00
13705;BME280;6924;52.122;9.952;2022-10-15T06:48:24;99721.28;;;13.67;100.00
13705;BME280;6924;52.122;9.952;2022-10-15T06:50:51;99731.47;;;13.68;100.00
13705;BME280;6924;52.122;9.952;2022-10-15T06:53:19;99729.09;;;13.70;100.00
13705;BME280;6924;52.122;9.952;2022-10-15T06:55:47;99726.28;;;13.70;100.00
13705;BME280;6924;52.122;9.952;2022-10-15T06:58:13;99729.59;;;13.72;100.00
13705;BME280;6924;52.122;9.952;2022-10-15T07:00:40;99726.38;;;13.73;100.00
13705;BME280;6924;52.122;9.952;2022-10-15T07:03:07;99735.00;;;13.77;100.00
13705;BME280;6924;52.122;9.952;2022-10-15T07:05:33;99733.00;;;13.77;100.00
13705;BME280;6924;52.122;9.952;2022-10-15T07:08:00;99735.97;;;13.81;100.00
13705;BME280;6924;52.122;9.952;2022-10-15T07:10:28;99742.13;;;13.83;100.00
13705;BME280;6924;52.122;9.952;2022-10-15T07:12:54;99738.56;;;13.86;100.00
13705;BME280;6924;52.122;9.952;2022-10-15T07:15:21;99747.56;;;13.88;100.00
13705;BME280;6924;52.122;9.952;2022-10-15T07:17:49;99741.63;;;13.93;100.00
13705;BME280;6924;52.122;9.952;2022-10-15T07:20:16;99748.63;;;13.96;100.00
13705;BME280;6924;52.122;9.952;2022-10-15T07:22:43;99753.59;;;13.99;100.00
13705;BME280;6924;52.122;9.952;2022-10-15T07:25:10;99758.94;;;14.00;100.00
13705;BME280;6924;52.122;9.952;2022-10-15T07:27:38;99763.06;;;14.03;100.00
13705;BME280;6924;52.122;9.952;2022-10-15T07:30:06;99769.22;;;14.05;100.00
13705;BME280;6924;52.122;9.952;2022-10-15T07:32:33;99768.03;;;14.06;100.00
13705;BME280;6924;52.122;9.952;2022-10-15T07:35:00;99773.34;;;14.08;100.00
13705;BME280;6924;52.122;9.952;2022-10-15T07:37:27;99756.78;;;14.10;100.00
13705;BME280;6924;52.122;9.952;2022-10-15T07:39:53;99758.06;;;14.12;100.00
13705;BME280;6924;52.122;9.952;2022-10-15T07:42:20;99760.19;;;14.15;100.00
13705;BME280;6924;52.122;9.952;2022-10-15T07:44:48;99758.66;;;14.18;100.00
13705;BME280;6924;52.122;9.952;2022-10-15T07:47:15;99754.72;;;14.22;100.00
13705;BME280;6924;52.122;9.952;2022-10-15T07:49:41;99756.03;;;14.25;100.00
13705;BME280;6924;52.122;9.952;2022-10-15T07:52:08;99764.28;;;14.30;100.00
13705;BME280;6924;52.122;9.952;2022-10-15T07:54:34;99770.94;;;14.34;100.00
13705;BME280;6924;52.122;9.952;2022-10-15T07:57:01;99763.69;;;14.37;100.00
13705;BME280;6924;52.122;9.952;2022-10-15T07:59:27;99760.97;;;14.40;100.00
13705;BME280;6924;52.122;9.952;2022-10-15T08:01:55;99764.28;;;14.42;100.00
13705;BME280;6924;52.122;9.952;2022-10-15T08:04:22;99757.50;;;14.47;100.00
13705;BME280;6924;52.122;9.952;2022-10-15T08:06:48;99761.63;;;14.50;100.00
13705;BME280;6924;52.122;9.952;2022-10-15T08:09:15;99768.75;;;14.56;100.00
13705;BME280;6924;52.122;9.952;2022-10-15T08:11:41;99769.69;;;14.60;100.00
13705;BME280;6924;52.122;9.952;2022-10-15T08:14:08;99775.00;;;14.61;100.00
13705;BME280;6924;52.122;9.952;2022-10-15T08:16:35;99770.63;;;14.64;100.00
13705;BME280;6924;52.122;9.952;2022-10-15T08:19:03;99770.72;;;14.67;100.00
13705;BME280;6924;52.122;9.952;2022-10-15T08:21:30;99773.69;;;14.71;100.00
13705;BME280;6924;52.122;9.952;2022-10-15T08:23:56;99767.38;;;14.78;100.00
13705;BME280;6924;52.122;9.952;2022-10-15T08:26:25;99775.66;;;14.83;100.00
13705;BME280;6924;52.122;9.952;2022-10-15T08:28:51;99775.00;;;14.90;100.00
13705;BME280;6924;52.122;9.952;2022-10-15T08:31:18;99772.28;;;14.93;100.00
13705;BME280;6924;52.122;9.952;2022-10-15T08:33:44;99778.91;;;14.97;100.00
13705;BME280;6924;52.122;9.952;2022-10-15T08:36:12;99775.69;;;14.99;100.00
13705;BME280;6924;52.122;9.952;2022-10-15T08:38:39;99772.19;;;15.05;100.00
13705;BME280;6924;52.122;9.952;2022-10-15T08:41:17;99770.28;;;15.09;100.00
13705;BME280;6924;52.122;9.952;2022-10-15T08:43:45;99764.34;;;15.15;100.00
13705;BME280;6924;52.122;9.952;2022-10-15T08:46:15;99768.81;;;15.16;100.00
13705;BME280;6924;52.122;9.952;2022-10-15T08:48:46;99768.81;;;15.16;100.00
13705;BME280;6924;52.122;9.952;2022-10-15T08:51:17;99772.88;;;15.15;100.00
13705;BME280;6924;52.122;9.952;2022-10-15T08:53:47;99770.94;;;15.19;100.00
13705;BME280;6924;52.122;9.952;2022-10-15T08:56:18;99760.84;;;15.21;100.00
13705;BME280;6924;52.122;9.952;2022-10-15T08:58:50;99758.53;;;15.27;100.00
13705;BME280;6924;52.122;9.952;2022-10-15T09:01:23;99772.50;;;15.32;100.00
13705;BME280;6924;52.122;9.952;2022-10-15T09:04:00;99769.47;;;15.41;100.00
13705;BME280;6924;52.122;9.952;2022-10-15T09:06:34;99768.84;;;15.47;100.00
13705;BME280;6924;52.122;9.952;2022-10-15T09:09:09;99777.84;;;15.49;100.00
13705;BME280;6924;52.122;9.952;2022-10-15T09:11:45;99778.69;;;15.50;100.00
13705;BME280;6924;52.122;9.952;2022-10-15T09:14:20;99779.06;;;15.48;99.59
13705;BME280;6924;52.122;9.952;2022-10-15T09:16:48;99782.38;;;15.50;99.61
13705;BME280;6924;52.122;9.952;2022-10-15T09:19:17;99783.28;;;15.55;99.63
13705;BME280;6924;52.122;9.952;2022-10-15T09:21:47;99776.50;;;15.59;99.93
13705;BME280;6924;52.122;9.952;2022-10-15T09:24:18;99774.16;;;15.65;99.19
13705;BME280;6924;52.122;9.952;2022-10-15T09:26:53;99768.56;;;15.68;98.60
13705;BME280;6924;52.122;9.952;2022-10-15T09:29:29;99770.13;;;15.66;98.95
13705;BME280;6924;52.122;9.952;2022-10-15T09:32:06;99772.91;;;15.78;98.89
13705;BME280;6924;52.122;9.952;2022-10-15T09:34:39;99769.84;;;15.87;98.75
13705;BME280;6924;52.122;9.952;2022-10-15T09:37:15;99763.31;;;16.02;98.88
13705;BME280;6924;52.122;9.952;2022-10-15T09:39:53;99757.63;;;16.22;97.05
13705;BME280;6924;52.122;9.952;2022-10-15T09:42:27;99771.19;;;16.44;95.76
13705;BME280;6924;52.122;9.952;2022-10-15T09:44:58;99774.50;;;16.66;95.05
13705;BME280;6924;52.122;9.952;2022-10-15T09:47:28;99771.22;;;16.83;93.03
13705;BME280;6924;52.122;9.952;2022-10-15T09:49:54;99769.25;;;17.07;91.82
13705;BME280;6924;52.122;9.952;2022-10-15T09:52:29;99765.97;;;17.28;89.51
13705;BME280;6924;52.122;9.952;2022-10-15T09:55:09;99766.69;;;17.44;88.79
13705;BME280;6924;52.122;9.952;2022-10-15T09:57:39;99766.22;;;17.65;87.11
13705;BME280;6924;52.122;9.952;2022-10-15T10:00:09;99770.94;;;17.77;86.13
13705;BME280;6924;52.122;9.952;2022-10-15T10:02:38;99768.06;;;18.00;86.26
13705;BME280;6924;52.122;9.952;2022-10-15T10:05:19;99770.47;;;18.25;85.30
13705;BME280;6924;52.122;9.952;2022-10-15T10:07:47;99776.41;;;18.39;82.48
13705;BME280;6924;52.122;9.952;2022-10-15T10:10:22;99773.50;;;18.35;80.61
13705;BME280;6924;52.122;9.952;2022-10-15T10:12:50;99769.53;;;18.44;80.87
13705;BME280;6924;52.122;9.952;2022-10-15T10:15:27;99782.28;;;18.50;80.54
13705;BME280;6924;52.122;9.952;2022-10-15T10:17:56;99780.78;;;18.59;78.93
13705;BME280;6924;52.122;9.952;2022-10-15T10:20:24;99774.31;;;18.66;79.34
13705;BME280;6924;52.122;9.952;2022-10-15T10:22:53;99769.63;;;18.81;78.87
13705;BME280;6924;52.122;9.952;2022-10-15T10:25:29;99771.41;;;18.93;77.38
13705;BME280;6924;52.122;9.952;2022-10-15T10:27:58;99776.47;;;19.07;77.36
13705;BME280;6924;52.122;9.952;2022-10-15T10:30:32;99765.06;;;19.10;75.57
13705;BME280;6924;52.122;9.952;2022-10-15T10:32:59;99762.69;;;19.19;75.48
13705;BME280;6924;52.122;9.952;2022-10-15T10:35:34;99755.47;;;19.33;73.76
13705;BME280;6924;52.122;9.952;2022-10-15T10:38:03;99756.75;;;19.39;72.66
13705;BME280;6924;52.122;9.952;2022-10-15T10:40:33;99753.41;;;19.33;72.74
13705;BME280;6924;52.122;9.952;2022-10-15T10:43:15;99763.88;;;19.15;73.33
13705;BME280;6924;52.122;9.952;2022-10-15T10:45:52;99766.16;;;18.98;73.67
13705;BME280;6924;52.122;9.952;2022-10-15T10:48:21;99760.75;;;18.90;73.76
13705;BME280;6924;52.122;9.952;2022-10-15T10:51:05;99759.25;;;18.73;74.80
13705;BME280;6924;52.122;9.952;2022-10-15T10:53:38;99758.25;;;18.58;75.82
13705;BME280;6924;52.122;9.952;2022-10-15T10:56:08;99742.59;;;18.48;75.03
13705;BME280;6924;52.122;9.952;2022-10-15T10:58:37;99745.81;;;18.47;76.29
13705;BME280;6924;52.122;9.952;2022-10-15T11:01:04;99739.88;;;18.59;77.81
13705;BME280;6924;52.122;9.952;2022-10-15T11:03:33;99729.31;;;18.67;76.66
13705;BME280;6924;52.122;9.952;2022-10-15T11:06:15;99746.50;;;18.67;75.66
13705;BME280;6924;52.122;9.952;2022-10-15T11:08:54;99746.28;;;18.79;76.26
13705;BME280;6924;52.122;9.952;2022-10-15T11:11:28;99737.34;;;18.84;75.00
13705;BME280;6924;52.122;9.952;2022-10-15T11:14:04;99741.13;;;18.92;74.04
13705;BME280;6924;52.122;9.952;2022-10-15T11:16:43;99740.00;;;19.04;73.57
13705;BME280;6924;52.122;9.952;2022-10-15T11:19:23;99743.38;;;19.13;72.97
13705;BME280;6924;52.122;9.952;2022-10-15T11:22:03;99735.47;;;19.03;71.93
13705;BME280;6924;52.122;9.952;2022-10-15T11:24:41;99744.06;;;18.99;72.39
13705;BME280;6924;52.122;9.952;2022-10-15T11:27:19;99733.78;;;18.94;73.15
13705;BME280;6924;52.122;9.952;2022-10-15T11:29:54;99730.41;;;18.89;72.30
13705;BME280;6924;52.122;9.952;2022-10-15T11:32:36;99735.34;;;18.88;73.09
13705;BME280;6924;52.122;9.952;2022-10-15T11:35:28;99745.94;;;18.84;71.94
13705;BME280;6924;52.122;9.952;2022-10-15T11:38:03;99749.16;;;18.79;71.03
13705;BME280;6924;52.122;9.952;2022-10-15T11:40:40;99736.72;;;18.68;70.63
13705;BME280;6924;52.122;9.952;2022-10-15T11:43:16;99726.31;;;18.56;71.88
13705;BME280;6924;52.122;9.952;2022-10-15T11:45:56;99729.22;;;18.59;71.73
13705;BME280;6924;52.122;9.952;2022-10-15T11:48:36;99722.63;;;18.55;72.37
13705;BME280;6924;52.122;9.952;2022-10-15T11:51:11;99718.88;;;18.51;72.26
13705;BME280;6924;52.122;9.952;2022-10-15T11:53:51;99715.16;;;18.47;72.66
13705;BME280;6924;52.122;9.952;2022-10-15T11:56:25;99716.03;;;18.51;73.78
13705;BME280;6924;52.122;9.952;2022-10-15T11:58:56;99714.34;;;18.47;73.91
13705;BME280;6924;52.122;9.952;2022-10-15T12:01:28;99704.56;;;18.51;73.08
13705;BME280;6924;52.122;9.952;2022-10-15T12:04:02;99700.75;;;18.40;73.21
13705;BME280;6924;52.122;9.952;2022-10-15T12:06:36;99697.88;;;18.40;72.19
13705;BME280;6924;52.122;9.952;2022-10-15T12:09:05;99697.06;;;18.40;72.45
13705;BME280;6924;52.122;9.952;2022-10-15T12:11:44;99699.16;;;18.43;73.45
13705;BME280;6924;52.122;9.952;2022-10-15T12:14:19;99705.72;;;18.43;73.03
13705;BME280;6924;52.122;9.952;2022-10-15T12:16:54;99699.16;;;18.43;73.59
13705;BME280;6924;52.122;9.952;2022-10-15T12:19:27;99695.38;;;18.35;74.03
13705;BME280;6924;52.122;9.952;2022-10-15T12:22:06;99684.22;;;18.26;74.15
13705;BME280;6924;52.122;9.952;2022-10-15T12:24:49;99678.94;;;18.28;74.42
13705;BME280;6924;52.122;9.952;2022-10-15T12:27:31;99687.56;;;18.32;74.37
13705;BME280;6924;52.122;9.952;2022-10-15T12:30:20;99693.78;;;18.37;74.16
13705;BME280;6924;52.122;9.952;2022-10-15T12:32:48;99690.47;;;18.35;73.79
13705;BME280;6924;52.122;9.952;2022-10-15T12:35:21;99689.88;;;18.23;75.23
13705;BME280;6924;52.122;9.952;2022-10-15T12:37:49;99677.97;;;18.17;75.21
13705;BME280;6924;52.122;9.952;2022-10-15T12:40:26;99685.31;;;18.18;76.58
13705;BME280;6924;52.122;9.952;2022-10-15T12:42:56;99668.25;;;18.25;76.03
13705;BME280;6924;52.122;9.952;2022-10-15T12:45:32;99667.34;;;18.17;75.59
13705;BME280;6924;52.122;9.952;2022-10-15T12:48:17;99667.00;;;18.23;75.21
13705;BME280;6924;52.122;9.952;2022-10-15T12:50:44;99667.88;;;18.27;75.30
13705;BME280;6924;52.122;9.952;2022-10-15T12:53:29;99665.38;;;18.25;75.25
13705;BME280;6924;52.122;9.952;2022-10-15T12:56:18;99667.47;;;18.28;74.22
13705;BME280;6924;52.122;9.952;2022-10-15T12:58:49;99662.63;;;18.32;74.33
13705;BME280;6924;52.122;9.952;2022-10-15T13:01:29;99655.25;;;18.31;75.06
13705;BME280;6924;52.122;9.952;2022-10-15T13:04:15;99657.78;;;18.36;75.78
13705;BME280;6924;52.122;9.952;2022-10-15T13:06:42;99652.53;;;18.42;74.55
13705;BME280;6924;52.122;9.952;2022-10-15T13:09:22;99657.13;;;18.50;75.14
13705;BME280;6924;52.122;9.952;2022-10-15T13:11:54;99657.19;;;18.57;73.64
13705;BME280;6924;52.122;9.952;2022-10-15T13:14:28;99657.28;;;18.65;73.16
13705;BME280;6924;52.122;9.952;2022-10-15T13:16:56;99654.91;;;18.74;73.51
13705;BME280;6924;52.122;9.952;2022-10-15T13:19:27;99648.38;;;18.73;72.59
13705;BME280;6924;52.122;9.952;2022-10-15T13:21:55;99655.66;;;18.67;71.92